Aérodrome :
LOGIN :

S'inscrire | Disclaimer

   EN    FR    IT 

 










Légende :    VFR   VFR Marginal   IFR   IFR Intensif   IFR Très Intensif
Visi : 
Plafond : 
>= 8 km
>= 3000ft
5 à 8 km
1000 à 3000 ft
1500m à 5 km
500 à 1000 ft
800 à 1500m
200 à 500 ft
< 800m
< 200 ft
Symboles :   Orages  Brouillard  Fortes neiges  Fortes précipitations  Vent > 20 kt
SIGMETs :   Divers  Orages  Givrage  Turbulence  Onde Orograph.  Cendres Volcan.







- Altitude de l'aérodrome : 74 ft
- Code IATA : LRH
- Voir les cartes d'approche


LFBH - La Rochelle Ile de Ré

DERNIER METAR :
  • 221930Z AUTO 28007KT 9999 BKN007 15/13 Q1016 TEMPO BKN010

METARs EXPIRÉS :
  • 221900Z AUTO 28007KT CAVOK 15/13 Q1016 TEMPO BKN010
  • 221830Z AUTO 27005KT CAVOK 16/14 Q1016 TEMPO BKN010 BECMG 33010KT
  • 221800Z AUTO 27006KT 240V300 CAVOK 16/13 Q1015 TEMPO BKN010
  • 221730Z AUTO 26005KT CAVOK 17/14 Q1015 TEMPO BKN010 BECMG 33010KT
  • 221700Z AUTO 29008KT CAVOK 17/13 Q1015 TEMPO BKN005

TAF AMD TAF LFBH
Valide du 22 à 19h jusqu'au 23 à 18h UTC


221942Z 2219/2318 28010KT 9999 BKN007
TEMPO 2219/2221 SCT007
PROB30
TEMPO 2302/2305 4000 SHRA BKN070TCU
BECMG 2306/2308 OVC015
BECMG 2312/2314 BKN025
ATIS : +33 5 46 00 13 92
Pas de NOTAMs connus pour ce terrain.
1 SIGMET publié pour la FIR Bordeaux (LFBB) :
 
Orages noyés dans la masse
LFBB SIGMET 1 VALID 221900/222100 LFPW
LFBB BORDEAUX FIR/UIR EMBD TS FCST WI N4245 E00000 - N4300 W00145 - N4430 W00145 - N4430 W00100 - N4345 E00100 - N4245 E00000 TOP FL350 STNR INTSF=



MET'MAP, la Météo Aéronautique d'un coup d'oeil ! - Copyright ORBIFLY Décembre 2007 - Disclaimer

ORBIFLY MET'MAP TEAM :

Programmation & Développement : Alexandra Zaïnal
Conception & Développement : Baudouin d'Aumeries
Co-Programmation & Développement : Marc-Olivier Méhu
Soutien technique & logistique : Manuel Goepfert

Contact : metmap@orbifly.com




SOURCES & CREDITS :

   NOAA